sensor_id;sensor_type;location;lat;lon;timestamp;P1;durP1;ratioP1;P2;durP2;ratioP2
56718;SDS011;42597;40.636;0.278;2022-11-03T00:01:30;9.07;;;5.18;;
56718;SDS011;42597;40.636;0.278;2022-11-03T00:03:59;10.95;;;6.65;;
56718;SDS011;42597;40.636;0.278;2022-11-03T00:06:24;8.68;;;6.90;;
56718;SDS011;42597;40.636;0.278;2022-11-03T00:08:50;17.15;;;7.60;;
56718;SDS011;42597;40.636;0.278;2022-11-03T00:11:15;8.85;;;5.43;;
56718;SDS011;42597;40.636;0.278;2022-11-03T00:13:42;11.82;;;4.57;;
56718;SDS011;42597;40.636;0.278;2022-11-03T00:16:11;6.40;;;4.47;;
56718;SDS011;42597;40.636;0.278;2022-11-03T00:18:37;13.35;;;5.93;;
56718;SDS011;42597;40.636;0.278;2022-11-03T00:23:32;12.45;;;6.28;;
56718;SDS011;42597;40.636;0.278;2022-11-03T00:28:33;12.18;;;5.45;;
56718;SDS011;42597;40.636;0.278;2022-11-03T00:30:59;13.38;;;6.05;;
56718;SDS011;42597;40.636;0.278;2022-11-03T00:33:29;13.00;;;6.78;;
56718;SDS011;42597;40.636;0.278;2022-11-03T00:35:59;20.65;;;6.43;;
56718;SDS011;42597;40.636;0.278;2022-11-03T00:38:26;14.60;;;6.50;;
56718;SDS011;42597;40.636;0.278;2022-11-03T00:40:53;11.40;;;6.80;;
56718;SDS011;42597;40.636;0.278;2022-11-03T00:43:22;8.63;;;5.40;;
56718;SDS011;42597;40.636;0.278;2022-11-03T00:45:49;8.52;;;4.95;;
56718;SDS011;42597;40.636;0.278;2022-11-03T00:48:15;9.80;;;5.82;;
56718;SDS011;42597;40.636;0.278;2022-11-03T00:51:15;9.77;;;5.63;;
56718;SDS011;42597;40.636;0.278;2022-11-03T00:53:53;10.45;;;6.28;;
56718;SDS011;42597;40.636;0.278;2022-11-03T00:56:30;8.52;;;5.53;;
56718;SDS011;42597;40.636;0.278;2022-11-03T00:58:57;13.00;;;6.38;;
56718;SDS011;42597;40.636;0.278;2022-11-03T01:01:25;11.57;;;5.45;;
56718;SDS011;42597;40.636;0.278;2022-11-03T01:03:53;10.03;;;5.57;;
56718;SDS011;42597;40.636;0.278;2022-11-03T01:06:41;13.30;;;6.82;;
56718;SDS011;42597;40.636;0.278;2022-11-03T01:09:14;8.32;;;4.55;;
56718;SDS011;42597;40.636;0.278;2022-11-03T01:14:31;11.00;;;5.50;;
56718;SDS011;42597;40.636;0.278;2022-11-03T01:17:00;10.70;;;5.35;;
56718;SDS011;42597;40.636;0.278;2022-11-03T01:19:26;12.38;;;6.95;;
56718;SDS011;42597;40.636;0.278;2022-11-03T01:21:52;10.27;;;6.18;;
56718;SDS011;42597;40.636;0.278;2022-11-03T01:24:18;7.72;;;4.78;;
56718;SDS011;42597;40.636;0.278;2022-11-03T01:26:44;11.63;;;5.95;;
56718;SDS011;42597;40.636;0.278;2022-11-03T01:29:09;8.05;;;4.38;;
56718;SDS011;42597;40.636;0.278;2022-11-03T01:31:35;10.07;;;5.22;;
56718;SDS011;42597;40.636;0.278;2022-11-03T01:34:01;11.23;;;7.68;;
56718;SDS011;42597;40.636;0.278;2022-11-03T01:36:26;15.55;;;6.88;;
56718;SDS011;42597;40.636;0.278;2022-11-03T01:38:52;6.43;;;4.53;;
56718;SDS011;42597;40.636;0.278;2022-11-03T01:41:20;7.18;;;6.05;;
56718;SDS011;42597;40.636;0.278;2022-11-03T01:47:27;13.90;;;6.70;;
56718;SDS011;42597;40.636;0.278;2022-11-03T01:49:58;8.15;;;4.40;;
56718;SDS011;42597;40.636;0.278;2022-11-03T01:52:29;6.57;;;4.80;;
56718;SDS011;42597;40.636;0.278;2022-11-03T01:55:02;6.70;;;4.05;;
56718;SDS011;42597;40.636;0.278;2022-11-03T01:57:40;16.25;;;8.52;;
56718;SDS011;42597;40.636;0.278;2022-11-03T02:00:09;13.07;;;6.85;;
56718;SDS011;42597;40.636;0.278;2022-11-03T02:02:35;7.75;;;6.20;;
56718;SDS011;42597;40.636;0.278;2022-11-03T02:05:01;10.55;;;4.78;;
56718;SDS011;42597;40.636;0.278;2022-11-03T02:07:34;10.57;;;4.45;;
56718;SDS011;42597;40.636;0.278;2022-11-03T02:10:05;12.95;;;6.30;;
56718;SDS011;42597;40.636;0.278;2022-11-03T02:12:32;11.48;;;6.65;;
56718;SDS011;42597;40.636;0.278;2022-11-03T02:15:01;10.30;;;6.25;;
56718;SDS011;42597;40.636;0.278;2022-11-03T02:17:30;11.27;;;6.60;;
56718;SDS011;42597;40.636;0.278;2022-11-03T02:20:16;11.45;;;7.00;;
56718;SDS011;42597;40.636;0.278;2022-11-03T02:28:05;13.27;;;7.63;;
56718;SDS011;42597;40.636;0.278;2022-11-03T02:30:43;9.15;;;4.88;;
56718;SDS011;42597;40.636;0.278;2022-11-03T02:33:16;13.20;;;6.93;;
56718;SDS011;42597;40.636;0.278;2022-11-03T02:35:54;8.10;;;6.40;;
56718;SDS011;42597;40.636;0.278;2022-11-03T02:38:22;9.60;;;6.57;;
56718;SDS011;42597;40.636;0.278;2022-11-03T02:40:53;10.00;;;6.53;;
56718;SDS011;42597;40.636;0.278;2022-11-03T02:43:21;8.63;;;6.25;;
56718;SDS011;42597;40.636;0.278;2022-11-03T02:45:49;10.52;;;8.52;;
56718;SDS011;42597;40.636;0.278;2022-11-03T02:48:17;24.30;;;8.27;;
56718;SDS011;42597;40.636;0.278;2022-11-03T02:50:43;10.43;;;7.07;;
56718;SDS011;42597;40.636;0.278;2022-11-03T02:53:11;9.60;;;5.43;;
56718;SDS011;42597;40.636;0.278;2022-11-03T03:03:56;10.48;;;7.18;;
56718;SDS011;42597;40.636;0.278;2022-11-03T03:06:29;13.43;;;7.10;;
56718;SDS011;42597;40.636;0.278;2022-11-03T03:08:58;11.60;;;10.40;;
56718;SDS011;42597;40.636;0.278;2022-11-03T03:11:27;15.57;;;6.40;;
56718;SDS011;42597;40.636;0.278;2022-11-03T03:14:07;11.85;;;8.57;;
56718;SDS011;42597;40.636;0.278;2022-11-03T03:16:34;14.65;;;7.30;;
56718;SDS011;42597;40.636;0.278;2022-11-03T03:21:46;13.15;;;10.02;;
56718;SDS011;42597;40.636;0.278;2022-11-03T03:24:20;16.05;;;7.18;;
56718;SDS011;42597;40.636;0.278;2022-11-03T03:26:48;8.10;;;5.65;;
56718;SDS011;42597;40.636;0.278;2022-11-03T03:32:05;10.32;;;6.05;;
56718;SDS011;42597;40.636;0.278;2022-11-03T03:34:33;7.07;;;5.18;;
56718;SDS011;42597;40.636;0.278;2022-11-03T03:37:03;10.73;;;5.65;;
56718;SDS011;42597;40.636;0.278;2022-11-03T03:39:31;11.10;;;7.47;;
56718;SDS011;42597;40.636;0.278;2022-11-03T03:42:00;10.90;;;6.75;;
56718;SDS011;42597;40.636;0.278;2022-11-03T03:44:26;9.63;;;7.05;;
56718;SDS011;42597;40.636;0.278;2022-11-03T03:47:03;11.02;;;7.35;;
56718;SDS011;42597;40.636;0.278;2022-11-03T03:49:34;10.13;;;6.50;;
56718;SDS011;42597;40.636;0.278;2022-11-03T03:51:59;13.73;;;8.10;;
56718;SDS011;42597;40.636;0.278;2022-11-03T03:54:27;14.67;;;7.53;;
56718;SDS011;42597;40.636;0.278;2022-11-03T03:57:03;9.27;;;6.28;;
56718;SDS011;42597;40.636;0.278;2022-11-03T03:59:30;11.85;;;7.43;;
56718;SDS011;42597;40.636;0.278;2022-11-03T04:01:56;8.70;;;5.93;;
56718;SDS011;42597;40.636;0.278;2022-11-03T04:04:22;9.35;;;4.88;;
56718;SDS011;42597;40.636;0.278;2022-11-03T04:06:47;8.77;;;5.95;;
56718;SDS011;42597;40.636;0.278;2022-11-03T04:09:13;10.73;;;6.15;;
56718;SDS011;42597;40.636;0.278;2022-11-03T04:11:38;12.05;;;6.38;;
56718;SDS011;42597;40.636;0.278;2022-11-03T04:14:22;7.70;;;5.20;;
56718;SDS011;42597;40.636;0.278;2022-11-03T04:17:18;8.35;;;6.82;;
56718;SDS011;42597;40.636;0.278;2022-11-03T04:20:03;8.68;;;5.22;;
56718;SDS011;42597;40.636;0.278;2022-11-03T04:22:52;8.38;;;5.15;;
56718;SDS011;42597;40.636;0.278;2022-11-03T04:25:17;8.98;;;5.65;;
56718;SDS011;42597;40.636;0.278;2022-11-03T04:27:42;10.85;;;7.03;;
56718;SDS011;42597;40.636;0.278;2022-11-03T04:32:39;12.60;;;6.78;;
56718;SDS011;42597;40.636;0.278;2022-11-03T04:35:15;9.18;;;5.40;;
56718;SDS011;42597;40.636;0.278;2022-11-03T04:37:44;12.82;;;7.78;;
56718;SDS011;42597;40.636;0.278;2022-11-03T04:40:14;11.65;;;7.60;;
56718;SDS011;42597;40.636;0.278;2022-11-03T04:42:40;10.73;;;6.95;;
56718;SDS011;42597;40.636;0.278;2022-11-03T04:45:27;14.13;;;7.28;;
56718;SDS011;42597;40.636;0.278;2022-11-03T04:47:54;14.55;;;6.85;;
56718;SDS011;42597;40.636;0.278;2022-11-03T04:50:24;8.98;;;5.88;;
56718;SDS011;42597;40.636;0.278;2022-11-03T04:52:51;7.57;;;5.28;;
56718;SDS011;42597;40.636;0.278;2022-11-03T04:55:19;10.07;;;8.15;;
56718;SDS011;42597;40.636;0.278;2022-11-03T04:57:46;16.08;;;6.93;;
56718;SDS011;42597;40.636;0.278;2022-11-03T05:00:13;10.68;;;7.82;;
56718;SDS011;42597;40.636;0.278;2022-11-03T05:05:13;14.52;;;8.63;;
56718;SDS011;42597;40.636;0.278;2022-11-03T05:07:52;13.82;;;5.95;;
56718;SDS011;42597;40.636;0.278;2022-11-03T05:10:23;11.52;;;6.10;;
56718;SDS011;42597;40.636;0.278;2022-11-03T05:12:50;9.10;;;6.85;;
56718;SDS011;42597;40.636;0.278;2022-11-03T05:15:36;11.77;;;7.15;;
56718;SDS011;42597;40.636;0.278;2022-11-03T05:18:13;9.30;;;6.43;;
56718;SDS011;42597;40.636;0.278;2022-11-03T05:20:50;12.73;;;7.93;;
56718;SDS011;42597;40.636;0.278;2022-11-03T05:23:18;12.02;;;8.32;;
56718;SDS011;42597;40.636;0.278;2022-11-03T05:25:47;12.85;;;7.63;;
56718;SDS011;42597;40.636;0.278;2022-11-03T05:30:49;9.77;;;5.60;;
56718;SDS011;42597;40.636;0.278;2022-11-03T05:38:22;13.52;;;8.13;;
56718;SDS011;42597;40.636;0.278;2022-11-03T05:40:51;11.55;;;7.53;;
56718;SDS011;42597;40.636;0.278;2022-11-03T05:43:18;12.15;;;7.85;;
56718;SDS011;42597;40.636;0.278;2022-11-03T05:45:44;11.68;;;8.80;;
56718;SDS011;42597;40.636;0.278;2022-11-03T05:48:33;14.27;;;8.20;;
56718;SDS011;42597;40.636;0.278;2022-11-03T05:50:59;12.32;;;9.57;;
56718;SDS011;42597;40.636;0.278;2022-11-03T05:53:38;12.15;;;7.32;;
56718;SDS011;42597;40.636;0.278;2022-11-03T05:56:11;11.82;;;7.32;;
56718;SDS011;42597;40.636;0.278;2022-11-03T05:58:43;15.80;;;7.95;;
56718;SDS011;42597;40.636;0.278;2022-11-03T06:01:22;15.02;;;9.10;;
56718;SDS011;42597;40.636;0.278;2022-11-03T06:03:52;8.88;;;7.63;;
56718;SDS011;42597;40.636;0.278;2022-11-03T06:09:14;8.75;;;7.07;;
56718;SDS011;42597;40.636;0.278;2022-11-03T06:11:43;11.85;;;8.18;;
56718;SDS011;42597;40.636;0.278;2022-11-03T06:16:42;9.32;;;6.72;;
56718;SDS011;42597;40.636;0.278;2022-11-03T06:21:50;10.43;;;6.70;;
56718;SDS011;42597;40.636;0.278;2022-11-03T06:24:18;12.90;;;6.82;;
56718;SDS011;42597;40.636;0.278;2022-11-03T06:26:46;9.63;;;6.00;;
56718;SDS011;42597;40.636;0.278;2022-11-03T06:29:17;9.63;;;6.28;;
56718;SDS011;42597;40.636;0.278;2022-11-03T06:31:45;11.10;;;6.85;;
56718;SDS011;42597;40.636;0.278;2022-11-03T06:34:20;11.25;;;6.40;;
56718;SDS011;42597;40.636;0.278;2022-11-03T06:36:55;10.07;;;7.03;;
56718;SDS011;42597;40.636;0.278;2022-11-03T06:39:23;9.68;;;5.32;;
56718;SDS011;42597;40.636;0.278;2022-11-03T06:41:49;10.90;;;6.57;;
56718;SDS011;42597;40.636;0.278;2022-11-03T06:44:19;9.93;;;6.45;;
56718;SDS011;42597;40.636;0.278;2022-11-03T06:46:48;10.23;;;8.15;;
56718;SDS011;42597;40.636;0.278;2022-11-03T06:49:23;10.68;;;6.68;;
56718;SDS011;42597;40.636;0.278;2022-11-03T06:54:46;14.85;;;7.40;;
56718;SDS011;42597;40.636;0.278;2022-11-03T06:57:12;13.00;;;9.23;;
56718;SDS011;42597;40.636;0.278;2022-11-03T06:59:40;11.40;;;7.45;;
56718;SDS011;42597;40.636;0.278;2022-11-03T07:02:13;9.98;;;6.72;;
56718;SDS011;42597;40.636;0.278;2022-11-03T07:04:49;14.80;;;7.75;;
56718;SDS011;42597;40.636;0.278;2022-11-03T07:07:15;14.52;;;7.05;;
56718;SDS011;42597;40.636;0.278;2022-11-03T07:09:40;14.77;;;9.40;;
56718;SDS011;42597;40.636;0.278;2022-11-03T07:12:07;13.77;;;8.95;;
56718;SDS011;42597;40.636;0.278;2022-11-03T07:14:41;15.18;;;7.53;;
56718;SDS011;42597;40.636;0.278;2022-11-03T07:17:17;10.50;;;6.20;;
56718;SDS011;42597;40.636;0.278;2022-11-03T07:19:46;9.57;;;5.40;;
56718;SDS011;42597;40.636;0.278;2022-11-03T07:24:46;13.95;;;7.95;;
56718;SDS011;42597;40.636;0.278;2022-11-03T07:27:22;12.10;;;8.00;;
56718;SDS011;42597;40.636;0.278;2022-11-03T07:29:51;13.07;;;9.15;;
56718;SDS011;42597;40.636;0.278;2022-11-03T07:32:21;11.30;;;7.13;;
56718;SDS011;42597;40.636;0.278;2022-11-03T07:34:51;11.45;;;6.75;;
56718;SDS011;42597;40.636;0.278;2022-11-03T07:37:19;13.32;;;6.97;;
56718;SDS011;42597;40.636;0.278;2022-11-03T07:39:46;15.02;;;8.88;;
56718;SDS011;42597;40.636;0.278;2022-11-03T07:42:18;15.07;;;9.10;;
56718;SDS011;42597;40.636;0.278;2022-11-03T07:44:46;12.43;;;7.10;;
56718;SDS011;42597;40.636;0.278;2022-11-03T07:47:13;19.25;;;8.80;;
56718;SDS011;42597;40.636;0.278;2022-11-03T07:49:43;14.10;;;8.73;;
56718;SDS011;42597;40.636;0.278;2022-11-03T07:52:11;15.07;;;10.02;;
56718;SDS011;42597;40.636;0.278;2022-11-03T07:54:39;13.30;;;9.68;;
56718;SDS011;42597;40.636;0.278;2022-11-03T07:57:09;19.10;;;11.48;;
56718;SDS011;42597;40.636;0.278;2022-11-03T07:59:42;10.82;;;8.18;;
56718;SDS011;42597;40.636;0.278;2022-11-03T08:02:23;15.15;;;8.32;;
56718;SDS011;42597;40.636;0.278;2022-11-03T08:05:07;14.02;;;9.02;;
56718;SDS011;42597;40.636;0.278;2022-11-03T08:07:32;12.60;;;7.70;;
56718;SDS011;42597;40.636;0.278;2022-11-03T08:09:58;12.20;;;8.35;;
56718;SDS011;42597;40.636;0.278;2022-11-03T08:12:24;17.73;;;8.48;;
56718;SDS011;42597;40.636;0.278;2022-11-03T08:14:49;24.02;;;10.23;;
56718;SDS011;42597;40.636;0.278;2022-11-03T08:17:15;16.38;;;8.45;;
56718;SDS011;42597;40.636;0.278;2022-11-03T08:19:41;13.23;;;8.48;;
56718;SDS011;42597;40.636;0.278;2022-11-03T08:22:06;13.80;;;9.40;;
56718;SDS011;42597;40.636;0.278;2022-11-03T08:24:32;10.88;;;8.95;;
56718;SDS011;42597;40.636;0.278;2022-11-03T08:26:58;21.05;;;9.25;;
56718;SDS011;42597;40.636;0.278;2022-11-03T08:29:23;12.55;;;7.97;;
56718;SDS011;42597;40.636;0.278;2022-11-03T08:31:54;16.13;;;11.00;;
56718;SDS011;42597;40.636;0.278;2022-11-03T08:34:20;11.32;;;7.88;;
56718;SDS011;42597;40.636;0.278;2022-11-03T08:36:45;13.30;;;7.65;;
56718;SDS011;42597;40.636;0.278;2022-11-03T08:39:11;20.83;;;12.35;;
56718;SDS011;42597;40.636;0.278;2022-11-03T08:41:37;17.95;;;9.25;;
56718;SDS011;42597;40.636;0.278;2022-11-03T08:44:02;19.40;;;13.60;;
56718;SDS011;42597;40.636;0.278;2022-11-03T08:46:28;17.88;;;10.13;;
56718;SDS011;42597;40.636;0.278;2022-11-03T08:48:54;17.00;;;9.35;;
56718;SDS011;42597;40.636;0.278;2022-11-03T08:51:19;11.93;;;8.82;;
56718;SDS011;42597;40.636;0.278;2022-11-03T08:53:45;19.65;;;9.10;;
56718;SDS011;42597;40.636;0.278;2022-11-03T08:56:14;18.90;;;12.00;;
56718;SDS011;42597;40.636;0.278;2022-11-03T08:58:40;38.17;;;15.07;;
56718;SDS011;42597;40.636;0.278;2022-11-03T09:01:05;19.42;;;12.75;;
56718;SDS011;42597;40.636;0.278;2022-11-03T09:03:32;11.98;;;8.82;;
56718;SDS011;42597;40.636;0.278;2022-11-03T09:05:57;10.05;;;7.40;;
56718;SDS011;42597;40.636;0.278;2022-11-03T09:08:23;13.60;;;11.05;;
56718;SDS011;42597;40.636;0.278;2022-11-03T09:10:48;24.23;;;10.27;;
56718;SDS011;42597;40.636;0.278;2022-11-03T09:13:14;18.00;;;9.20;;
56718;SDS011;42597;40.636;0.278;2022-11-03T09:15:39;13.88;;;8.80;;
56718;SDS011;42597;40.636;0.278;2022-11-03T09:18:05;11.27;;;9.00;;
56718;SDS011;42597;40.636;0.278;2022-11-03T09:20:30;13.88;;;9.43;;
56718;SDS011;42597;40.636;0.278;2022-11-03T09:22:56;14.70;;;9.07;;
56718;SDS011;42597;40.636;0.278;2022-11-03T09:25:21;14.68;;;10.32;;
56718;SDS011;42597;40.636;0.278;2022-11-03T09:27:47;13.95;;;9.35;;
56718;SDS011;42597;40.636;0.278;2022-11-03T09:30:12;19.38;;;9.70;;
56718;SDS011;42597;40.636;0.278;2022-11-03T09:32:38;11.45;;;8.50;;
56718;SDS011;42597;40.636;0.278;2022-11-03T09:35:05;16.15;;;9.43;;
56718;SDS011;42597;40.636;0.278;2022-11-03T09:37:32;13.52;;;11.07;;
56718;SDS011;42597;40.636;0.278;2022-11-03T09:39:58;16.02;;;10.45;;
56718;SDS011;42597;40.636;0.278;2022-11-03T09:42:23;10.77;;;8.40;;
56718;SDS011;42597;40.636;0.278;2022-11-03T09:44:50;23.83;;;15.10;;
56718;SDS011;42597;40.636;0.278;2022-11-03T09:47:27;22.98;;;16.50;;
56718;SDS011;42597;40.636;0.278;2022-11-03T09:49:57;19.30;;;13.32;;
56718;SDS011;42597;40.636;0.278;2022-11-03T09:52:23;16.50;;;10.15;;
56718;SDS011;42597;40.636;0.278;2022-11-03T09:54:50;20.85;;;15.38;;
56718;SDS011;42597;40.636;0.278;2022-11-03T09:57:19;13.27;;;10.25;;
56718;SDS011;42597;40.636;0.278;2022-11-03T09:59:46;16.30;;;11.70;;
56718;SDS011;42597;40.636;0.278;2022-11-03T10:02:20;18.20;;;12.82;;
56718;SDS011;42597;40.636;0.278;2022-11-03T10:04:50;18.33;;;11.23;;
56718;SDS011;42597;40.636;0.278;2022-11-03T10:07:59;14.07;;;8.70;;
56718;SDS011;42597;40.636;0.278;2022-11-03T10:11:04;14.68;;;9.48;;
56718;SDS011;42597;40.636;0.278;2022-11-03T10:13:49;12.13;;;7.88;;
56718;SDS011;42597;40.636;0.278;2022-11-03T10:16:59;14.52;;;7.90;;
56718;SDS011;42597;40.636;0.278;2022-11-03T10:20:00;14.30;;;9.25;;
56718;SDS011;42597;40.636;0.278;2022-11-03T10:22:46;13.50;;;9.68;;
56718;SDS011;42597;40.636;0.278;2022-11-03T10:32:08;17.38;;;10.75;;
56718;SDS011;42597;40.636;0.278;2022-11-03T10:41:33;13.48;;;7.70;;
56718;SDS011;42597;40.636;0.278;2022-11-03T10:44:31;16.20;;;9.30;;
56718;SDS011;42597;40.636;0.278;2022-11-03T10:47:34;9.70;;;7.65;;
56718;SDS011;42597;40.636;0.278;2022-11-03T10:53:18;15.77;;;8.68;;
56718;SDS011;42597;40.636;0.278;2022-11-03T10:55:54;11.55;;;8.43;;
56718;SDS011;42597;40.636;0.278;2022-11-03T10:58:23;15.18;;;7.20;;
56718;SDS011;42597;40.636;0.278;2022-11-03T11:01:01;8.30;;;4.30;;
56718;SDS011;42597;40.636;0.278;2022-11-03T11:03:48;5.68;;;3.05;;
56718;SDS011;42597;40.636;0.278;2022-11-03T11:09:24;11.25;;;4.30;;
56718;SDS011;42597;40.636;0.278;2022-11-03T11:14:55;7.47;;;3.70;;
56718;SDS011;42597;40.636;0.278;2022-11-03T11:17:39;6.45;;;3.80;;
56718;SDS011;42597;40.636;0.278;2022-11-03T11:31:56;7.00;;;2.70;;
56718;SDS011;42597;40.636;0.278;2022-11-03T11:35:11;13.05;;;3.75;;
56718;SDS011;42597;40.636;0.278;2022-11-03T11:37:51;8.88;;;4.63;;
56718;SDS011;42597;40.636;0.278;2022-11-03T11:51:44;7.25;;;3.60;;
56718;SDS011;42597;40.636;0.278;2022-11-03T11:54:19;9.65;;;3.83;;
56718;SDS011;42597;40.636;0.278;2022-11-03T11:56:50;5.32;;;2.67;;
56718;SDS011;42597;40.636;0.278;2022-11-03T11:59:29;5.10;;;2.83;;
56718;SDS011;42597;40.636;0.278;2022-11-03T12:02:00;8.10;;;4.47;;
56718;SDS011;42597;40.636;0.278;2022-11-03T12:05:00;9.05;;;3.58;;
56718;SDS011;42597;40.636;0.278;2022-11-03T12:07:44;9.25;;;5.45;;
56718;SDS011;42597;40.636;0.278;2022-11-03T12:10:31;5.82;;;3.47;;
56718;SDS011;42597;40.636;0.278;2022-11-03T12:24:56;5.45;;;3.20;;
56718;SDS011;42597;40.636;0.278;2022-11-03T12:28:02;7.70;;;3.95;;
56718;SDS011;42597;40.636;0.278;2022-11-03T12:30:53;5.43;;;2.70;;
56718;SDS011;42597;40.636;0.278;2022-11-03T12:33:50;4.70;;;2.20;;
56718;SDS011;42597;40.636;0.278;2022-11-03T12:36:24;6.00;;;2.28;;
56718;SDS011;42597;40.636;0.278;2022-11-03T12:38:59;8.05;;;2.75;;
56718;SDS011;42597;40.636;0.278;2022-11-03T12:41:25;7.32;;;3.42;;
56718;SDS011;42597;40.636;0.278;2022-11-03T12:43:53;6.50;;;2.67;;
56718;SDS011;42597;40.636;0.278;2022-11-03T12:46:22;6.60;;;2.85;;
56718;SDS011;42597;40.636;0.278;2022-11-03T12:48:48;8.15;;;3.05;;
56718;SDS011;42597;40.636;0.278;2022-11-03T12:51:14;6.50;;;2.28;;
56718;SDS011;42597;40.636;0.278;2022-11-03T12:53:45;4.40;;;2.08;;
56718;SDS011;42597;40.636;0.278;2022-11-03T12:56:11;5.03;;;2.50;;
56718;SDS011;42597;40.636;0.278;2022-11-03T12:58:38;7.25;;;3.05;;
56718;SDS011;42597;40.636;0.278;2022-11-03T13:01:04;6.53;;;3.15;;
56718;SDS011;42597;40.636;0.278;2022-11-03T13:03:30;8.35;;;4.13;;
56718;SDS011;42597;40.636;0.278;2022-11-03T13:05:57;4.30;;;2.75;;
56718;SDS011;42597;40.636;0.278;2022-11-03T13:08:23;7.93;;;3.20;;
56718;SDS011;42597;40.636;0.278;2022-11-03T13:10:49;10.55;;;3.45;;
56718;SDS011;42597;40.636;0.278;2022-11-03T13:13:15;5.25;;;3.00;;
56718;SDS011;42597;40.636;0.278;2022-11-03T13:15:41;6.85;;;3.20;;
56718;SDS011;42597;40.636;0.278;2022-11-03T13:18:06;6.07;;;3.25;;
56718;SDS011;42597;40.636;0.278;2022-11-03T13:20:32;9.25;;;3.28;;
56718;SDS011;42597;40.636;0.278;2022-11-03T13:22:58;6.57;;;2.80;;
56718;SDS011;42597;40.636;0.278;2022-11-03T13:25:23;3.97;;;2.38;;
56718;SDS011;42597;40.636;0.278;2022-11-03T13:27:50;6.53;;;2.58;;
56718;SDS011;42597;40.636;0.278;2022-11-03T13:30:19;7.53;;;3.08;;
56718;SDS011;42597;40.636;0.278;2022-11-03T13:32:45;7.57;;;2.58;;
56718;SDS011;42597;40.636;0.278;2022-11-03T13:35:11;6.40;;;2.95;;
56718;SDS011;42597;40.636;0.278;2022-11-03T13:37:37;6.00;;;2.55;;
56718;SDS011;42597;40.636;0.278;2022-11-03T13:40:02;3.65;;;2.22;;
56718;SDS011;42597;40.636;0.278;2022-11-03T13:42:28;5.93;;;2.80;;
56718;SDS011;42597;40.636;0.278;2022-11-03T13:44:54;7.65;;;2.97;;
56718;SDS011;42597;40.636;0.278;2022-11-03T13:47:21;4.97;;;2.65;;
56718;SDS011;42597;40.636;0.278;2022-11-03T13:49:47;4.22;;;2.35;;
56718;SDS011;42597;40.636;0.278;2022-11-03T13:54:42;4.20;;;2.20;;
56718;SDS011;42597;40.636;0.278;2022-11-03T13:57:07;4.88;;;2.72;;
56718;SDS011;42597;40.636;0.278;2022-11-03T13:59:33;4.97;;;2.53;;
56718;SDS011;42597;40.636;0.278;2022-11-03T14:01:59;6.90;;;3.17;;
56718;SDS011;42597;40.636;0.278;2022-11-03T14:04:25;5.43;;;2.78;;
56718;SDS011;42597;40.636;0.278;2022-11-03T14:06:50;5.80;;;3.05;;
56718;SDS011;42597;40.636;0.278;2022-11-03T14:09:15;4.68;;;2.92;;
56718;SDS011;42597;40.636;0.278;2022-11-03T14:11:41;6.18;;;3.22;;
56718;SDS011;42597;40.636;0.278;2022-11-03T14:14:25;7.53;;;3.60;;
56718;SDS011;42597;40.636;0.278;2022-11-03T14:16:50;6.25;;;3.35;;
56718;SDS011;42597;40.636;0.278;2022-11-03T14:19:16;9.77;;;4.22;;
56718;SDS011;42597;40.636;0.278;2022-11-03T14:21:41;5.13;;;2.40;;
56718;SDS011;42597;40.636;0.278;2022-11-03T14:24:07;7.40;;;2.97;;
56718;SDS011;42597;40.636;0.278;2022-11-03T14:26:33;5.22;;;2.78;;
56718;SDS011;42597;40.636;0.278;2022-11-03T14:28:58;5.80;;;2.60;;
56718;SDS011;42597;40.636;0.278;2022-11-03T14:31:24;5.05;;;3.03;;
56718;SDS011;42597;40.636;0.278;2022-11-03T14:33:49;3.88;;;2.63;;
56718;SDS011;42597;40.636;0.278;2022-11-03T14:36:15;7.63;;;3.47;;
56718;SDS011;42597;40.636;0.278;2022-11-03T14:38:40;7.82;;;3.00;;
56718;SDS011;42597;40.636;0.278;2022-11-03T14:41:06;5.18;;;2.83;;
56718;SDS011;42597;40.636;0.278;2022-11-03T14:43:57;5.10;;;2.80;;
56718;SDS011;42597;40.636;0.278;2022-11-03T14:46:23;11.10;;;3.03;;
56718;SDS011;42597;40.636;0.278;2022-11-03T14:48:49;7.28;;;2.63;;
56718;SDS011;42597;40.636;0.278;2022-11-03T14:51:14;5.35;;;2.78;;
56718;SDS011;42597;40.636;0.278;2022-11-03T14:53:40;5.20;;;2.83;;
56718;SDS011;42597;40.636;0.278;2022-11-03T14:56:06;4.20;;;2.67;;
56718;SDS011;42597;40.636;0.278;2022-11-03T14:58:32;5.57;;;2.50;;
56718;SDS011;42597;40.636;0.278;2022-11-03T15:00:57;5.72;;;3.03;;
56718;SDS011;42597;40.636;0.278;2022-11-03T15:03:23;8.65;;;3.05;;
56718;SDS011;42597;40.636;0.278;2022-11-03T15:05:48;5.13;;;3.20;;
56718;SDS011;42597;40.636;0.278;2022-11-03T15:08:18;5.25;;;2.60;;
56718;SDS011;42597;40.636;0.278;2022-11-03T15:10:43;5.40;;;2.85;;
56718;SDS011;42597;40.636;0.278;2022-11-03T15:13:09;6.55;;;2.78;;
56718;SDS011;42597;40.636;0.278;2022-11-03T15:15:34;6.18;;;3.20;;
56718;SDS011;42597;40.636;0.278;2022-11-03T15:18:03;5.43;;;2.60;;
56718;SDS011;42597;40.636;0.278;2022-11-03T15:20:29;6.22;;;2.70;;
56718;SDS011;42597;40.636;0.278;2022-11-03T15:22:59;6.07;;;2.80;;
56718;SDS011;42597;40.636;0.278;2022-11-03T15:25:29;5.35;;;3.00;;
56718;SDS011;42597;40.636;0.278;2022-11-03T15:27:54;16.05;;;4.63;;
56718;SDS011;42597;40.636;0.278;2022-11-03T15:30:20;11.68;;;3.75;;
56718;SDS011;42597;40.636;0.278;2022-11-03T15:32:45;10.80;;;3.65;;
56718;SDS011;42597;40.636;0.278;2022-11-03T15:35:11;8.82;;;4.40;;
56718;SDS011;42597;40.636;0.278;2022-11-03T15:37:36;10.88;;;3.90;;
56718;SDS011;42597;40.636;0.278;2022-11-03T15:40:02;15.45;;;5.60;;
56718;SDS011;42597;40.636;0.278;2022-11-03T15:42:28;7.40;;;4.03;;
56718;SDS011;42597;40.636;0.278;2022-11-03T15:44:54;14.43;;;4.80;;
56718;SDS011;42597;40.636;0.278;2022-11-03T15:47:19;25.05;;;5.07;;
56718;SDS011;42597;40.636;0.278;2022-11-03T15:49:45;6.82;;;3.03;;
56718;SDS011;42597;40.636;0.278;2022-11-03T15:52:10;14.52;;;3.80;;
56718;SDS011;42597;40.636;0.278;2022-11-03T15:54:36;26.25;;;6.05;;
56718;SDS011;42597;40.636;0.278;2022-11-03T15:57:01;16.25;;;4.88;;
56718;SDS011;42597;40.636;0.278;2022-11-03T15:59:27;19.95;;;5.47;;
56718;SDS011;42597;40.636;0.278;2022-11-03T16:01:52;13.93;;;4.85;;
56718;SDS011;42597;40.636;0.278;2022-11-03T16:04:18;10.90;;;4.03;;
56718;SDS011;42597;40.636;0.278;2022-11-03T16:06:43;31.05;;;7.05;;
56718;SDS011;42597;40.636;0.278;2022-11-03T16:09:09;20.80;;;5.63;;
56718;SDS011;42597;40.636;0.278;2022-11-03T16:11:34;37.72;;;9.88;;
56718;SDS011;42597;40.636;0.278;2022-11-03T16:13:59;40.58;;;7.28;;
56718;SDS011;42597;40.636;0.278;2022-11-03T16:16:25;31.77;;;7.10;;
56718;SDS011;42597;40.636;0.278;2022-11-03T16:18:51;40.03;;;11.10;;
56718;SDS011;42597;40.636;0.278;2022-11-03T16:21:16;42.10;;;11.10;;
56718;SDS011;42597;40.636;0.278;2022-11-03T16:23:42;66.30;;;13.10;;
56718;SDS011;42597;40.636;0.278;2022-11-03T16:26:07;71.78;;;14.40;;
56718;SDS011;42597;40.636;0.278;2022-11-03T16:28:33;48.40;;;9.02;;
56718;SDS011;42597;40.636;0.278;2022-11-03T16:30:59;48.40;;;12.10;;
56718;SDS011;42597;40.636;0.278;2022-11-03T16:33:25;68.63;;;14.55;;
56718;SDS011;42597;40.636;0.278;2022-11-03T16:35:50;83.55;;;17.63;;
56718;SDS011;42597;40.636;0.278;2022-11-03T16:38:16;57.58;;;13.13;;
56718;SDS011;42597;40.636;0.278;2022-11-03T16:40:42;10.95;;;3.45;;
56718;SDS011;42597;40.636;0.278;2022-11-03T16:43:08;10.55;;;3.60;;
56718;SDS011;42597;40.636;0.278;2022-11-03T16:45:34;9.82;;;4.32;;
56718;SDS011;42597;40.636;0.278;2022-11-03T16:47:59;10.35;;;3.97;;
56718;SDS011;42597;40.636;0.278;2022-11-03T16:50:25;10.35;;;3.20;;
56718;SDS011;42597;40.636;0.278;2022-11-03T16:52:50;5.07;;;3.08;;